createdAt,value
2018-02-24T00:01:44.339Z,19.75
2018-02-24T00:03:49.926Z,19.80
2018-02-24T00:05:55.656Z,19.83
2018-02-24T00:08:01.856Z,19.77
2018-02-24T00:10:07.778Z,19.78
2018-02-24T00:12:13.091Z,19.72
2018-02-24T00:14:19.383Z,19.74
2018-02-24T00:16:25.014Z,19.83
2018-02-24T00:18:30.969Z,19.78
2018-02-24T00:20:36.878Z,19.80
2018-02-24T00:22:49.268Z,19.86
2018-02-24T00:24:54.551Z,19.72
2018-02-24T00:27:02.313Z,19.66
2018-02-24T00:29:08.350Z,19.78
2018-02-24T00:31:14.261Z,19.82
2018-02-24T00:33:19.917Z,19.79
2018-02-24T00:35:25.610Z,19.71
2018-02-24T00:37:31.463Z,19.76
2018-02-24T00:39:37.673Z,19.61
2018-02-24T00:41:43.045Z,19.64
2018-02-24T00:43:48.971Z,19.65
2018-02-24T00:45:55.252Z,19.73
2018-02-24T00:48:00.755Z,19.65
2018-02-24T00:50:06.647Z,19.66
2018-02-24T00:52:11.970Z,19.71
2018-02-24T00:54:17.618Z,19.68
2018-02-24T00:56:23.275Z,19.80
2018-02-24T00:58:28.674Z,19.69
2018-02-24T01:00:34.965Z,19.60
2018-02-24T01:02:40.855Z,19.72
2018-02-24T01:04:46.620Z,19.74
2018-02-24T01:06:53.113Z,19.70
2018-02-24T01:08:59.547Z,19.52
2018-02-24T01:11:05.460Z,19.59
2018-02-24T01:13:11.252Z,19.62
2018-02-24T01:15:17.262Z,19.72
2018-02-24T01:17:22.934Z,19.55
2018-02-24T01:19:30.239Z,19.65
2018-02-24T01:21:36.079Z,19.57
2018-02-24T01:23:42.146Z,19.66
2018-02-24T01:25:48.085Z,19.59
2018-02-24T01:27:54.262Z,19.59
2018-02-24T01:30:01.340Z,19.49
2018-02-24T01:32:07.283Z,19.68
2018-02-24T01:34:13.526Z,19.64
2018-02-24T01:36:19.307Z,19.62
2018-02-24T01:38:25.364Z,19.65
2018-02-24T01:40:31.422Z,19.51
2018-02-24T01:42:37.432Z,19.54
2018-02-24T01:44:43.340Z,19.67
2018-02-24T01:46:49.112Z,19.60
2018-02-24T01:48:54.702Z,19.61
2018-02-24T01:51:00.856Z,19.64
2018-02-24T01:53:06.822Z,19.75
2018-02-24T01:55:12.116Z,19.50
2018-02-24T01:57:17.866Z,19.55
2018-02-24T01:59:24.570Z,19.58
2018-02-24T02:01:30.195Z,19.58
2018-02-24T02:03:36.456Z,19.62
2018-02-24T02:05:42.464Z,19.56
2018-02-24T02:07:48.157Z,19.54
2018-02-24T02:09:54.415Z,19.55
2018-02-24T02:12:02.388Z,19.58
2018-02-24T02:14:07.606Z,19.58
2018-02-24T02:16:14.540Z,19.62
2018-02-24T02:18:20.463Z,19.64
2018-02-24T02:20:26.541Z,19.59
2018-02-24T02:22:32.646Z,19.59
2018-02-24T02:24:38.462Z,19.49
2018-02-24T02:26:44.383Z,19.53
2018-02-24T02:28:50.841Z,19.75
2018-02-24T02:30:57.660Z,19.82
2018-02-24T02:33:03.549Z,19.75
2018-02-24T02:35:09.395Z,19.63
2018-02-24T02:37:15.993Z,19.74
2018-02-24T02:39:22.123Z,19.61
2018-02-24T02:41:27.710Z,19.64
2018-02-24T02:43:33.641Z,19.81
2018-02-24T02:45:39.827Z,19.75
2018-02-24T02:47:45.972Z,19.64
2018-02-24T02:49:51.908Z,19.71
2018-02-24T02:51:59.142Z,19.61
2018-02-24T02:54:05.081Z,19.83
2018-02-24T02:56:11.052Z,19.72
2018-02-24T02:58:16.728Z,19.77
2018-02-24T03:00:23.116Z,19.77
2018-02-24T03:02:29.240Z,19.66
2018-02-24T03:04:35.200Z,19.73
2018-02-24T03:06:41.940Z,19.70
2018-02-24T03:08:48.196Z,19.74
2018-02-24T03:10:54.124Z,19.77
2018-02-24T03:13:05.192Z,19.69
2018-02-24T03:15:10.978Z,19.66
2018-02-24T03:17:17.541Z,19.68
2018-02-24T03:19:24.035Z,19.64
2018-02-24T03:21:29.470Z,19.69
2018-02-24T03:23:39.667Z,19.78
2018-02-24T03:25:45.687Z,19.78
2018-02-24T03:27:51.901Z,19.62
2018-02-24T03:29:58.436Z,19.65
2018-02-24T03:32:05.583Z,19.72
2018-02-24T03:34:11.783Z,19.68
2018-02-24T03:36:18.148Z,19.65
2018-02-24T03:38:24.408Z,19.66
2018-02-24T03:40:30.370Z,19.60
2018-02-24T03:42:36.456Z,19.67
2018-02-24T03:44:43.154Z,19.73
2018-02-24T03:46:48.905Z,19.65
2018-02-24T03:48:56.574Z,19.68
2018-02-24T03:51:02.938Z,19.69
2018-02-24T03:53:09.846Z,19.76
2018-02-24T03:55:15.988Z,19.71
2018-02-24T03:57:22.371Z,19.66
2018-02-24T03:59:35.508Z,19.74
2018-02-24T04:01:41.546Z,19.60
2018-02-24T04:03:47.390Z,19.65
2018-02-24T04:05:53.480Z,19.79
2018-02-24T04:07:59.949Z,19.74
2018-02-24T04:10:05.895Z,19.68
2018-02-24T04:12:11.869Z,19.63
2018-02-24T04:14:22.228Z,19.65
2018-02-24T04:16:28.352Z,19.74
2018-02-24T04:18:34.440Z,19.75
2018-02-24T04:20:40.411Z,19.70
2018-02-24T04:22:46.286Z,19.76
2018-02-24T04:24:51.911Z,19.70
2018-02-24T04:26:59.123Z,19.74
2018-02-24T04:29:05.176Z,19.65
2018-02-24T04:31:11.549Z,19.60
2018-02-24T04:33:17.652Z,19.68
2018-02-24T04:35:23.592Z,19.60
2018-02-24T04:37:29.504Z,19.55
2018-02-24T04:39:35.378Z,19.56
2018-02-24T04:41:40.976Z,19.60
2018-02-24T04:43:46.915Z,19.59
2018-02-24T04:45:52.744Z,19.56
2018-02-24T04:48:00.242Z,19.64
2018-02-24T04:50:06.722Z,19.68
2018-02-24T04:52:12.711Z,19.60
2018-02-24T04:54:18.631Z,19.57
2018-02-24T04:56:24.846Z,19.53
2018-02-24T04:58:30.884Z,19.51
2018-02-24T05:00:37.057Z,19.58
2018-02-24T05:02:42.615Z,19.72
2018-02-24T05:04:48.626Z,19.70
2018-02-24T05:06:54.672Z,19.65
2018-02-24T05:09:00.554Z,19.67
2018-02-24T05:11:06.815Z,19.65
2018-02-24T05:13:12.848Z,19.58
2018-02-24T05:15:18.617Z,19.69
2018-02-24T05:17:24.612Z,19.64
2018-02-24T05:19:30.603Z,19.58
2018-02-24T05:21:36.925Z,19.57
2018-02-24T05:23:42.736Z,19.62
2018-02-24T05:25:48.505Z,19.58
2018-02-24T05:27:54.160Z,19.60
2018-02-24T05:30:01.404Z,19.53
2018-02-24T05:32:07.336Z,19.57
2018-02-24T05:34:13.169Z,19.52
2018-02-24T05:36:19.206Z,19.54
2018-02-24T05:38:25.367Z,19.59
2018-02-24T05:40:31.044Z,19.56
2018-02-24T05:42:36.843Z,19.54
2018-02-24T05:44:42.784Z,19.51
2018-02-24T05:46:49.081Z,19.51
2018-02-24T05:48:54.762Z,19.52
2018-02-24T05:51:01.402Z,19.53
2018-02-24T05:53:07.460Z,19.64
2018-02-24T05:55:13.621Z,19.51
2018-02-24T05:57:19.706Z,19.60
2018-02-24T05:59:25.829Z,19.59
2018-02-24T06:01:31.594Z,19.60
2018-02-24T06:03:37.459Z,19.60
2018-02-24T06:05:43.870Z,19.74
2018-02-24T06:07:49.386Z,19.60
2018-02-24T06:09:55.794Z,19.66
2018-02-24T06:12:01.854Z,19.74
2018-02-24T06:14:07.988Z,19.61
2018-02-24T06:16:13.654Z,19.76
2018-02-24T06:18:20.056Z,19.84
2018-02-24T06:20:26.835Z,19.69
2018-02-24T06:22:32.942Z,19.78
2018-02-24T06:24:38.278Z,19.84
2018-02-24T06:26:44.828Z,19.79
2018-02-24T06:28:50.502Z,19.74
2018-02-24T06:30:57.847Z,19.60
2018-02-24T06:33:03.820Z,19.83
2018-02-24T06:35:09.906Z,19.87
2018-02-24T06:37:15.851Z,19.74
2018-02-24T06:39:28.820Z,19.73
2018-02-24T06:41:34.239Z,19.86
2018-02-24T06:43:40.406Z,19.84
2018-02-24T06:45:46.324Z,19.87
2018-02-24T06:47:52.346Z,19.84
2018-02-24T06:49:59.378Z,19.81
2018-02-24T06:52:05.434Z,19.78
2018-02-24T06:54:10.854Z,19.89
2018-02-24T06:56:16.668Z,19.92
2018-02-24T06:58:22.711Z,19.88
2018-02-24T07:00:28.997Z,19.95
2018-02-24T07:02:35.088Z,20.12
2018-02-24T07:04:41.305Z,20.07
2018-02-24T07:06:47.680Z,20.14
2018-02-24T07:08:53.014Z,20.13
2018-02-24T07:10:59.438Z,20.08
2018-02-24T07:13:05.653Z,20.14
2018-02-24T07:15:11.526Z,20.10
2018-02-24T07:17:27.976Z,20.08
2018-02-24T07:19:33.456Z,20.16
2018-02-24T07:21:38.806Z,20.21
2018-02-24T07:23:44.580Z,20.09
2018-02-24T07:25:50.973Z,20.19
2018-02-24T07:27:57.796Z,20.23
2018-02-24T07:30:03.698Z,20.27
2018-02-24T07:32:13.904Z,20.32
2018-02-24T07:34:19.717Z,20.14
2018-02-24T07:36:24.999Z,20.20
2018-02-24T07:38:31.461Z,20.31
2018-02-24T07:40:36.766Z,20.33
2018-02-24T07:42:42.130Z,20.23
2018-02-24T07:44:47.836Z,20.11
2018-02-24T07:46:53.542Z,20.20
2018-02-24T07:49:00.491Z,20.33
2018-02-24T07:51:05.922Z,20.56
2018-02-24T07:53:11.807Z,20.41
2018-02-24T07:55:17.920Z,20.50
2018-02-24T07:57:23.776Z,20.48
2018-02-24T07:59:29.598Z,20.45
2018-02-24T08:01:35.808Z,20.52
2018-02-24T08:03:42.065Z,20.52
2018-02-24T08:08:08.412Z,20.47
2018-02-24T08:10:14.586Z,20.44
2018-02-24T08:12:20.501Z,20.51
2018-02-24T08:14:26.286Z,20.50
2018-02-24T08:16:32.122Z,20.66
2018-02-24T08:18:38.968Z,20.70
2018-02-24T08:20:44.631Z,20.74
2018-02-24T08:22:50.366Z,20.71
2018-02-24T08:24:56.736Z,20.74
2018-02-24T08:27:02.486Z,20.64
2018-02-24T08:29:07.809Z,20.68
2018-02-24T08:31:13.747Z,20.72
2018-02-24T08:33:19.895Z,20.78
2018-02-24T08:35:25.777Z,20.81
2018-02-24T08:37:31.896Z,20.80
2018-02-24T08:39:39.118Z,20.88
2018-02-24T08:41:45.076Z,20.84
2018-02-24T08:43:50.411Z,20.77
2018-02-24T08:45:59.058Z,20.79
2018-02-24T08:48:04.730Z,20.83
2018-02-24T08:50:10.124Z,20.77
2018-02-24T08:52:16.383Z,20.91
2018-02-24T08:54:22.042Z,20.83
2018-02-24T08:56:27.304Z,20.79
2018-02-24T08:58:32.956Z,20.85
2018-02-24T09:00:38.233Z,20.90
2018-02-24T09:02:43.556Z,20.92
2018-02-24T09:04:49.479Z,20.96
2018-02-24T09:06:55.920Z,20.90
2018-02-24T09:09:01.234Z,20.83
2018-02-24T09:11:06.598Z,20.74
2018-02-24T09:13:12.748Z,20.83
2018-02-24T09:15:18.618Z,20.77
2018-02-24T09:17:23.864Z,20.89
2018-02-24T09:19:30.068Z,20.87
2018-02-24T09:21:35.473Z,20.84
2018-02-24T09:23:40.972Z,20.82
2018-02-24T09:25:46.860Z,20.81
2018-02-24T09:27:52.198Z,20.88
2018-02-24T09:29:57.557Z,20.88
2018-02-24T09:32:03.538Z,20.97
2018-02-24T09:34:09.292Z,20.96
2018-02-24T09:36:15.077Z,20.95
2018-02-24T09:38:20.709Z,21.01
2018-02-24T09:40:26.576Z,20.98
2018-02-24T09:42:32.656Z,20.98
2018-02-24T09:44:38.661Z,20.97
2018-02-24T09:46:44.499Z,21.02
2018-02-24T09:48:49.803Z,21.09
2018-02-24T09:50:55.903Z,21.07
2018-02-24T09:53:03.178Z,21.06
2018-02-24T09:55:08.507Z,21.05
2018-02-24T09:57:14.141Z,21.07
2018-02-24T09:59:20.004Z,21.15
2018-02-24T10:01:26.819Z,21.19
2018-02-24T10:03:32.456Z,21.19
2018-02-24T10:05:38.103Z,21.29
2018-02-24T10:07:45.612Z,21.32
2018-02-24T10:09:51.245Z,21.34
2018-02-24T10:11:57.290Z,21.32
2018-02-24T10:14:03.838Z,21.37
2018-02-24T10:16:09.494Z,21.40
2018-02-24T10:18:14.824Z,21.42
2018-02-24T10:20:20.366Z,21.49
2018-02-24T10:22:25.929Z,21.55
2018-02-24T10:24:31.274Z,21.53
2018-02-24T10:26:37.570Z,21.56
2018-02-24T10:28:43.658Z,21.57
2018-02-24T10:30:49.690Z,21.61
2018-02-24T10:32:55.540Z,21.64
2018-02-24T10:35:06.940Z,21.61
2018-02-24T10:37:12.296Z,21.58
2018-02-24T10:39:17.678Z,21.62
2018-02-24T10:41:23.385Z,21.61
2018-02-24T10:43:28.780Z,21.62
2018-02-24T10:45:34.112Z,21.54
2018-02-24T10:47:40.324Z,21.60
2018-02-24T10:49:45.692Z,21.66
2018-02-24T10:51:50.968Z,21.66
2018-02-24T10:53:57.946Z,21.65
2018-02-24T10:56:04.161Z,21.56
2018-02-24T10:58:09.557Z,21.50
2018-02-24T11:00:15.773Z,21.48
2018-02-24T11:02:21.041Z,21.54
2018-02-24T11:04:26.625Z,21.65
2018-02-24T11:06:32.746Z,21.54
2018-02-24T11:08:38.047Z,21.62
2018-02-24T11:10:43.491Z,21.61
2018-02-24T11:12:49.141Z,21.58
2018-02-24T11:14:54.556Z,21.64
2018-02-24T11:17:01.252Z,21.68
2018-02-24T11:19:06.823Z,21.73
2018-02-24T11:21:12.129Z,21.70
2018-02-24T11:23:17.532Z,21.65
2018-02-24T11:25:23.128Z,21.73
2018-02-24T11:27:28.480Z,21.76
2018-02-24T11:29:34.061Z,21.79
2018-02-24T11:31:39.925Z,21.74
2018-02-24T11:33:45.268Z,21.78
2018-02-24T11:35:50.666Z,21.70
2018-02-24T11:37:56.310Z,21.68
2018-02-24T11:40:01.717Z,21.62
2018-02-24T11:42:11.517Z,21.65
2018-02-24T11:44:17.144Z,21.73
2018-02-24T11:46:22.541Z,21.74
2018-02-24T11:48:28.133Z,21.75
2018-02-24T11:50:33.784Z,21.75
2018-02-24T11:52:39.114Z,21.68
2018-02-24T11:54:44.423Z,21.58
2018-02-24T11:56:50.652Z,21.70
2018-02-24T11:58:55.922Z,21.61
2018-02-24T12:01:02.477Z,21.71
2018-02-24T12:03:08.384Z,21.91
2018-02-24T12:05:13.697Z,21.80
2018-02-24T12:07:19.008Z,21.83
2018-02-24T12:09:24.867Z,21.65
2018-02-24T12:11:36.304Z,21.66
2018-02-24T12:13:41.614Z,21.79
2018-02-24T12:15:47.247Z,21.70
2018-02-24T12:17:52.867Z,21.85
2018-02-24T12:19:58.237Z,21.75
2018-02-24T12:22:04.918Z,21.62
2018-02-24T12:24:11.921Z,21.72
2018-02-24T12:26:17.510Z,21.78
2018-02-24T12:28:23.565Z,21.66
2018-02-24T12:30:33.792Z,21.66
2018-02-24T12:32:40.331Z,21.65
2018-02-24T12:34:49.775Z,21.77
2018-02-24T12:36:58.233Z,21.80
2018-02-24T12:39:05.738Z,21.70
2018-02-24T12:41:11.379Z,21.61
2018-02-24T12:43:16.707Z,21.67
2018-02-24T12:45:22.065Z,22.00
2018-02-24T12:47:27.753Z,22.50
2018-02-24T12:49:33.399Z,22.51
2018-02-24T12:51:39.364Z,22.09
2018-02-24T12:53:45.208Z,21.97
2018-02-24T12:55:50.532Z,21.80
2018-02-24T12:57:56.270Z,21.97
2018-02-24T13:00:02.792Z,21.80
2018-02-24T13:02:08.146Z,22.01
2018-02-24T13:04:13.564Z,22.01
2018-02-24T13:06:19.388Z,21.97
2018-02-24T13:08:24.764Z,21.83
2018-02-24T13:10:30.060Z,21.70
2018-02-24T13:12:35.848Z,21.99
2018-02-24T13:14:41.266Z,22.49
2018-02-24T13:16:47.410Z,22.66
2018-02-24T13:18:53.262Z,22.25
2018-02-24T13:21:01.574Z,22.18
2018-02-24T13:23:10.730Z,22.39
2018-02-24T13:25:16.756Z,22.55
2018-02-24T13:27:28.458Z,22.66
2018-02-24T13:29:34.088Z,22.77
2018-02-24T13:31:40.487Z,22.90
2018-02-24T13:33:46.470Z,22.96
2018-02-24T13:35:52.880Z,22.98
2018-02-24T13:38:00.908Z,23.03
